sensor_id;sensor_type;location;lat;lon;timestamp;P1;durP1;ratioP1;P2;durP2;ratioP2
22515;SDS011;11424;48.860;9.624;2023-10-31T00:02:22;22.1;;;23.8;;
22515;SDS011;11424;48.860;9.624;2023-10-31T00:07:22;22.7;;;24.5;;
22515;SDS011;11424;48.860;9.624;2023-10-31T00:12:22;23.4;;;25.2;;
22515;SDS011;11424;48.860;9.624;2023-10-31T00:17:22;25.9;;;27.9;;
22515;SDS011;11424;48.860;9.624;2023-10-31T00:22:22;26.1;;;28.2;;
22515;SDS011;11424;48.860;9.624;2023-10-31T00:27:22;26.6;;;28.8;;
22515;SDS011;11424;48.860;9.624;2023-10-31T00:32:22;22.8;;;24.5;;
22515;SDS011;11424;48.860;9.624;2023-10-31T00:37:22;25;;;26.9;;
22515;SDS011;11424;48.860;9.624;2023-10-31T00:42:22;26.7;;;28.8;;
22515;SDS011;11424;48.860;9.624;2023-10-31T00:47:22;23.5;;;25.3;;
22515;SDS011;11424;48.860;9.624;2023-10-31T00:52:22;21;;;22.6;;
22515;SDS011;11424;48.860;9.624;2023-10-31T00:57:22;25.9;;;28;;
22515;SDS011;11424;48.860;9.624;2023-10-31T01:02:22;23.7;;;25.5;;
22515;SDS011;11424;48.860;9.624;2023-10-31T01:07:22;26.3;;;28.3;;
22515;SDS011;11424;48.860;9.624;2023-10-31T01:12:22;25.1;;;27.1;;
22515;SDS011;11424;48.860;9.624;2023-10-31T01:17:22;26.2;;;28.3;;
22515;SDS011;11424;48.860;9.624;2023-10-31T01:22:22;22.3;;;24.2;;
22515;SDS011;11424;48.860;9.624;2023-10-31T01:27:22;25.9;;;28;;
22515;SDS011;11424;48.860;9.624;2023-10-31T01:32:22;24.8;;;26.8;;
22515;SDS011;11424;48.860;9.624;2023-10-31T01:37:22;25.1;;;27.2;;
22515;SDS011;11424;48.860;9.624;2023-10-31T01:42:22;25;;;27.1;;
22515;SDS011;11424;48.860;9.624;2023-10-31T01:47:22;22.9;;;25;;
22515;SDS011;11424;48.860;9.624;2023-10-31T01:52:22;26.8;;;29.3;;
22515;SDS011;11424;48.860;9.624;2023-10-31T01:57:22;27.5;;;30.1;;
22515;SDS011;11424;48.860;9.624;2023-10-31T02:02:22;25.3;;;27.6;;
22515;SDS011;11424;48.860;9.624;2023-10-31T02:07:22;55.3;;;59.8;;
22515;SDS011;11424;48.860;9.624;2023-10-31T02:12:30;54.8;;;59.6;;
22515;SDS011;11424;48.860;9.624;2023-10-31T02:17:22;55.7;;;61;;
22515;SDS011;11424;48.860;9.624;2023-10-31T02:22:22;54.8;;;59.5;;
22515;SDS011;11424;48.860;9.624;2023-10-31T02:27:22;49.6;;;52.9;;
22515;SDS011;11424;48.860;9.624;2023-10-31T02:32:22;53.7;;;58.5;;
22515;SDS011;11424;48.860;9.624;2023-10-31T02:37:22;55.7;;;60.9;;
22515;SDS011;11424;48.860;9.624;2023-10-31T02:42:22;53.2;;;57.7;;
22515;SDS011;11424;48.860;9.624;2023-10-31T02:47:22;53.2;;;57.8;;
22515;SDS011;11424;48.860;9.624;2023-10-31T02:52:22;54.5;;;59.4;;
22515;SDS011;11424;48.860;9.624;2023-10-31T02:57:22;54.9;;;59.8;;
22515;SDS011;11424;48.860;9.624;2023-10-31T03:02:22;54.3;;;58.9;;
22515;SDS011;11424;48.860;9.624;2023-10-31T03:07:22;50.1;;;53.4;;
22515;SDS011;11424;48.860;9.624;2023-10-31T03:12:22;22.7;;;24.4;;
22515;SDS011;11424;48.860;9.624;2023-10-31T03:17:22;24.5;;;26.6;;
22515;SDS011;11424;48.860;9.624;2023-10-31T03:22:22;26.4;;;28.8;;
22515;SDS011;11424;48.860;9.624;2023-10-31T03:27:22;26.2;;;28.7;;
22515;SDS011;11424;48.860;9.624;2023-10-31T03:32:22;24;;;26.2;;
22515;SDS011;11424;48.860;9.624;2023-10-31T03:37:22;23.8;;;26;;
22515;SDS011;11424;48.860;9.624;2023-10-31T03:42:22;28.8;;;31.7;;
22515;SDS011;11424;48.860;9.624;2023-10-31T03:47:22;26;;;28.4;;
22515;SDS011;11424;48.860;9.624;2023-10-31T03:52:22;29.5;;;32.6;;
22515;SDS011;11424;48.860;9.624;2023-10-31T03:57:22;28.1;;;31;;
22515;SDS011;11424;48.860;9.624;2023-10-31T04:02:22;25.3;;;27.8;;
22515;SDS011;11424;48.860;9.624;2023-10-31T04:07:22;28.1;;;30.9;;
22515;SDS011;11424;48.860;9.624;2023-10-31T04:12:22;28.7;;;31.7;;
22515;SDS011;11424;48.860;9.624;2023-10-31T04:17:22;30.2;;;33.3;;
22515;SDS011;11424;48.860;9.624;2023-10-31T04:22:22;27.3;;;30.3;;
22515;SDS011;11424;48.860;9.624;2023-10-31T04:27:22;29;;;31.9;;
22515;SDS011;11424;48.860;9.624;2023-10-31T04:32:22;30.4;;;33.5;;
22515;SDS011;11424;48.860;9.624;2023-10-31T04:37:22;30;;;33.2;;
22515;SDS011;11424;48.860;9.624;2023-10-31T04:42:22;25.7;;;28.3;;
22515;SDS011;11424;48.860;9.624;2023-10-31T04:47:22;26.2;;;29.1;;
22515;SDS011;11424;48.860;9.624;2023-10-31T04:52:22;32.4;;;36.1;;
22515;SDS011;11424;48.860;9.624;2023-10-31T04:57:22;26.2;;;29.3;;
22515;SDS011;11424;48.860;9.624;2023-10-31T05:02:22;29.1;;;32.6;;
22515;SDS011;11424;48.860;9.624;2023-10-31T05:07:22;32;;;35.8;;
22515;SDS011;11424;48.860;9.624;2023-10-31T05:12:22;28.6;;;31.8;;
22515;SDS011;11424;48.860;9.624;2023-10-31T05:17:22;30.5;;;34.6;;
22515;SDS011;11424;48.860;9.624;2023-10-31T05:22:22;30.4;;;33.9;;
22515;SDS011;11424;48.860;9.624;2023-10-31T05:27:22;29.5;;;32.9;;
22515;SDS011;11424;48.860;9.624;2023-10-31T05:32:22;28.1;;;31.4;;
22515;SDS011;11424;48.860;9.624;2023-10-31T05:37:22;28.5;;;31.9;;
22515;SDS011;11424;48.860;9.624;2023-10-31T05:42:22;25.3;;;28.2;;
22515;SDS011;11424;48.860;9.624;2023-10-31T05:47:22;25.5;;;28.5;;
22515;SDS011;11424;48.860;9.624;2023-10-31T05:52:22;34.8;;;41.3;;
22515;SDS011;11424;48.860;9.624;2023-10-31T05:57:22;21.3;;;23.9;;
22515;SDS011;11424;48.860;9.624;2023-10-31T06:02:22;29.3;;;33.3;;
22515;SDS011;11424;48.860;9.624;2023-10-31T06:07:22;26.5;;;29.9;;
22515;SDS011;11424;48.860;9.624;2023-10-31T06:12:22;24.6;;;27.3;;
22515;SDS011;11424;48.860;9.624;2023-10-31T06:17:22;20.5;;;22.7;;
22515;SDS011;11424;48.860;9.624;2023-10-31T06:22:22;32.3;;;36;;
22515;SDS011;11424;48.860;9.624;2023-10-31T06:27:22;25.9;;;28.6;;
22515;SDS011;11424;48.860;9.624;2023-10-31T06:32:22;29.6;;;32.8;;
22515;SDS011;11424;48.860;9.624;2023-10-31T06:37:22;52.7;;;61.6;;
22515;SDS011;11424;48.860;9.624;2023-10-31T06:42:22;34.7;;;44.7;;
22515;SDS011;11424;48.860;9.624;2023-10-31T06:47:22;68.2;;;76.3;;
22515;SDS011;11424;48.860;9.624;2023-10-31T06:52:22;81.3;;;89.6;;
22515;SDS011;11424;48.860;9.624;2023-10-31T06:57:22;75.9;;;83.4;;
22515;SDS011;11424;48.860;9.624;2023-10-31T07:02:22;77.2;;;84.9;;
22515;SDS011;11424;48.860;9.624;2023-10-31T07:07:22;100.2;;;110.7;;
22515;SDS011;11424;48.860;9.624;2023-10-31T07:12:22;119;;;151.7;;
22515;SDS011;11424;48.860;9.624;2023-10-31T07:17:22;193.9;;;257.1;;
22515;SDS011;11424;48.860;9.624;2023-10-31T07:22:22;157.4;;;176.9;;
22515;SDS011;11424;48.860;9.624;2023-10-31T07:27:22;141.8;;;157.4;;
22515;SDS011;11424;48.860;9.624;2023-10-31T07:32:22;111.9;;;124.3;;
22515;SDS011;11424;48.860;9.624;2023-10-31T07:37:22;106.7;;;118;;
22515;SDS011;11424;48.860;9.624;2023-10-31T07:42:22;104.5;;;115.9;;
22515;SDS011;11424;48.860;9.624;2023-10-31T07:47:22;93.6;;;103.3;;
22515;SDS011;11424;48.860;9.624;2023-10-31T07:52:22;99.9;;;110.4;;
22515;SDS011;11424;48.860;9.624;2023-10-31T07:57:22;88.9;;;97.9;;
22515;SDS011;11424;48.860;9.624;2023-10-31T08:02:22;91.7;;;100.8;;
22515;SDS011;11424;48.860;9.624;2023-10-31T08:07:22;87.6;;;96.5;;
22515;SDS011;11424;48.860;9.624;2023-10-31T08:12:22;93.7;;;103;;
22515;SDS011;11424;48.860;9.624;2023-10-31T08:17:22;67;;;74.2;;
22515;SDS011;11424;48.860;9.624;2023-10-31T08:22:22;64;;;70.7;;
22515;SDS011;11424;48.860;9.624;2023-10-31T08:27:22;64.6;;;71.6;;
22515;SDS011;11424;48.860;9.624;2023-10-31T08:32:22;88.5;;;97.6;;
22515;SDS011;11424;48.860;9.624;2023-10-31T08:37:22;91;;;100.4;;
22515;SDS011;11424;48.860;9.624;2023-10-31T08:42:22;78.3;;;85.5;;
22515;SDS011;11424;48.860;9.624;2023-10-31T08:47:22;88.5;;;97.5;;
22515;SDS011;11424;48.860;9.624;2023-10-31T08:52:22;84.2;;;92.5;;
22515;SDS011;11424;48.860;9.624;2023-10-31T08:57:22;84.3;;;92.5;;
22515;SDS011;11424;48.860;9.624;2023-10-31T09:02:22;64.2;;;70.8;;
22515;SDS011;11424;48.860;9.624;2023-10-31T09:07:22;63.4;;;69.9;;
22515;SDS011;11424;48.860;9.624;2023-10-31T09:12:23;79.8;;;87.4;;
22515;SDS011;11424;48.860;9.624;2023-10-31T09:17:22;74;;;81;;
22515;SDS011;11424;48.860;9.624;2023-10-31T09:22:22;75;;;81.8;;
22515;SDS011;11424;48.860;9.624;2023-10-31T09:27:22;81.1;;;89.1;;
22515;SDS011;11424;48.860;9.624;2023-10-31T09:32:22;72.9;;;79.4;;
22515;SDS011;11424;48.860;9.624;2023-10-31T09:37:23;75.4;;;82.3;;
22515;SDS011;11424;48.860;9.624;2023-10-31T09:42:22;62.5;;;67.9;;
22515;SDS011;11424;48.860;9.624;2023-10-31T09:47:23;55.8;;;60.5;;
22515;SDS011;11424;48.860;9.624;2023-10-31T09:52:23;73.8;;;81;;
22515;SDS011;11424;48.860;9.624;2023-10-31T09:57:23;74.1;;;80.9;;
22515;SDS011;11424;48.860;9.624;2023-10-31T10:02:23;68.4;;;74.3;;
22515;SDS011;11424;48.860;9.624;2023-10-31T10:07:23;68;;;74;;
22515;SDS011;11424;48.860;9.624;2023-10-31T10:12:23;74.9;;;81.8;;
22515;SDS011;11424;48.860;9.624;2023-10-31T10:17:23;72.3;;;78.9;;
22515;SDS011;11424;48.860;9.624;2023-10-31T10:22:23;68.3;;;74.4;;
22515;SDS011;11424;48.860;9.624;2023-10-31T10:27:23;56.8;;;61.6;;
22515;SDS011;11424;48.860;9.624;2023-10-31T10:32:23;58.8;;;63.6;;
22515;SDS011;11424;48.860;9.624;2023-10-31T10:37:23;66.9;;;72.7;;
22515;SDS011;11424;48.860;9.624;2023-10-31T10:42:25;68.1;;;74.1;;
22515;SDS011;11424;48.860;9.624;2023-10-31T10:47:23;63.8;;;69.1;;
22515;SDS011;11424;48.860;9.624;2023-10-31T10:52:23;64.4;;;70.3;;
22515;SDS011;11424;48.860;9.624;2023-10-31T10:57:25;67;;;73.2;;
22515;SDS011;11424;48.860;9.624;2023-10-31T11:02:23;61.9;;;67.2;;
22515;SDS011;11424;48.860;9.624;2023-10-31T11:07:23;64;;;69.7;;
22515;SDS011;11424;48.860;9.624;2023-10-31T11:12:23;55.2;;;59.4;;
22515;SDS011;11424;48.860;9.624;2023-10-31T11:17:24;64;;;69.7;;
22515;SDS011;11424;48.860;9.624;2023-10-31T11:22:23;62.5;;;67.8;;
22515;SDS011;11424;48.860;9.624;2023-10-31T11:27:23;60.3;;;65.5;;
22515;SDS011;11424;48.860;9.624;2023-10-31T11:32:23;67.2;;;73.1;;
22515;SDS011;11424;48.860;9.624;2023-10-31T11:37:23;63.9;;;69.3;;
22515;SDS011;11424;48.860;9.624;2023-10-31T11:42:23;61;;;66.2;;
22515;SDS011;11424;48.860;9.624;2023-10-31T11:47:23;62.9;;;68.2;;
22515;SDS011;11424;48.860;9.624;2023-10-31T11:52:23;60.4;;;65.5;;
22515;SDS011;11424;48.860;9.624;2023-10-31T11:57:26;53.4;;;57.3;;
22515;SDS011;11424;48.860;9.624;2023-10-31T12:02:23;53.5;;;57.6;;
22515;SDS011;11424;48.860;9.624;2023-10-31T12:07:23;51.3;;;54.9;;
22515;SDS011;11424;48.860;9.624;2023-10-31T12:12:30;54.6;;;59;;
22515;SDS011;11424;48.860;9.624;2023-10-31T12:17:23;62.2;;;67.5;;
22515;SDS011;11424;48.860;9.624;2023-10-31T12:22:23;71.8;;;78.3;;
22515;SDS011;11424;48.860;9.624;2023-10-31T12:27:23;66.5;;;72.1;;
22515;SDS011;11424;48.860;9.624;2023-10-31T12:32:23;65.8;;;71.6;;
22515;SDS011;11424;48.860;9.624;2023-10-31T12:37:23;66.8;;;72.9;;
22515;SDS011;11424;48.860;9.624;2023-10-31T12:42:23;62.4;;;67.9;;
22515;SDS011;11424;48.860;9.624;2023-10-31T12:47:23;54.9;;;59.3;;
22515;SDS011;11424;48.860;9.624;2023-10-31T12:52:23;57.4;;;62;;
22515;SDS011;11424;48.860;9.624;2023-10-31T12:57:23;72.8;;;79.4;;
22515;SDS011;11424;48.860;9.624;2023-10-31T13:02:23;62.9;;;68.5;;
22515;SDS011;11424;48.860;9.624;2023-10-31T13:07:26;65.2;;;71;;
22515;SDS011;11424;48.860;9.624;2023-10-31T13:12:23;65.9;;;71.9;;
22515;SDS011;11424;48.860;9.624;2023-10-31T13:17:23;65.9;;;71.9;;
22515;SDS011;11424;48.860;9.624;2023-10-31T13:22:23;62.9;;;68.4;;
22515;SDS011;11424;48.860;9.624;2023-10-31T13:27:23;54.1;;;57.9;;
22515;SDS011;11424;48.860;9.624;2023-10-31T13:32:23;54.5;;;58.3;;
22515;SDS011;11424;48.860;9.624;2023-10-31T13:37:23;61.5;;;67;;
22515;SDS011;11424;48.860;9.624;2023-10-31T13:42:23;61.1;;;66.4;;
22515;SDS011;11424;48.860;9.624;2023-10-31T13:47:23;61.4;;;66.8;;
22515;SDS011;11424;48.860;9.624;2023-10-31T13:52:23;60.7;;;66.1;;
22515;SDS011;11424;48.860;9.624;2023-10-31T13:57:23;63.9;;;69.6;;
22515;SDS011;11424;48.860;9.624;2023-10-31T14:02:23;60.2;;;65.3;;
22515;SDS011;11424;48.860;9.624;2023-10-31T14:07:23;54.4;;;58.4;;
22515;SDS011;11424;48.860;9.624;2023-10-31T14:12:23;54.3;;;58.2;;
22515;SDS011;11424;48.860;9.624;2023-10-31T14:17:23;63.2;;;68.8;;
22515;SDS011;11424;48.860;9.624;2023-10-31T14:22:23;60.2;;;65.4;;
22515;SDS011;11424;48.860;9.624;2023-10-31T14:27:23;61.5;;;67;;
22515;SDS011;11424;48.860;9.624;2023-10-31T14:32:23;59.1;;;64;;
22515;SDS011;11424;48.860;9.624;2023-10-31T14:37:23;61.2;;;66.6;;
22515;SDS011;11424;48.860;9.624;2023-10-31T14:42:23;60.1;;;65.3;;
22515;SDS011;11424;48.860;9.624;2023-10-31T14:47:23;63;;;68.7;;
22515;SDS011;11424;48.860;9.624;2023-10-31T14:52:23;54.4;;;58.5;;
22515;SDS011;11424;48.860;9.624;2023-10-31T14:57:23;62.9;;;68.5;;
22515;SDS011;11424;48.860;9.624;2023-10-31T15:02:23;67.5;;;73.8;;
22515;SDS011;11424;48.860;9.624;2023-10-31T15:07:23;61.7;;;66.9;;
22515;SDS011;11424;48.860;9.624;2023-10-31T15:12:23;60;;;65.1;;
22515;SDS011;11424;48.860;9.624;2023-10-31T15:17:23;61.5;;;66.7;;
22515;SDS011;11424;48.860;9.624;2023-10-31T15:22:23;62.1;;;67.4;;
22515;SDS011;11424;48.860;9.624;2023-10-31T15:27:23;57.9;;;62.7;;
22515;SDS011;11424;48.860;9.624;2023-10-31T15:32:23;59.5;;;64.4;;
22515;SDS011;11424;48.860;9.624;2023-10-31T15:37:23;55.6;;;60;;
22515;SDS011;11424;48.860;9.624;2023-10-31T15:42:23;55.9;;;60.3;;
22515;SDS011;11424;48.860;9.624;2023-10-31T15:47:23;54;;;58.2;;
22515;SDS011;11424;48.860;9.624;2023-10-31T15:52:23;52.9;;;57.1;;
22515;SDS011;11424;48.860;9.624;2023-10-31T15:57:23;60.3;;;65.6;;
22515;SDS011;11424;48.860;9.624;2023-10-31T16:02:23;65.6;;;71.3;;
22515;SDS011;11424;48.860;9.624;2023-10-31T16:07:23;69.2;;;75.9;;
22515;SDS011;11424;48.860;9.624;2023-10-31T16:12:23;74.3;;;81.8;;
22515;SDS011;11424;48.860;9.624;2023-10-31T16:17:23;63.6;;;69.1;;
22515;SDS011;11424;48.860;9.624;2023-10-31T16:22:23;59;;;64.1;;
22515;SDS011;11424;48.860;9.624;2023-10-31T16:27:23;54;;;58.3;;
22515;SDS011;11424;48.860;9.624;2023-10-31T16:32:23;56.5;;;61.3;;
22515;SDS011;11424;48.860;9.624;2023-10-31T16:37:23;80.6;;;88.4;;
22515;SDS011;11424;48.860;9.624;2023-10-31T16:42:23;72.4;;;79;;
22515;SDS011;11424;48.860;9.624;2023-10-31T16:47:23;69.6;;;76;;
22515;SDS011;11424;48.860;9.624;2023-10-31T16:52:23;66.3;;;72.2;;
22515;SDS011;11424;48.860;9.624;2023-10-31T16:57:23;94.4;;;104.3;;
22515;SDS011;11424;48.860;9.624;2023-10-31T17:02:23;87.2;;;97;;
22515;SDS011;11424;48.860;9.624;2023-10-31T17:07:23;62;;;67.8;;
22515;SDS011;11424;48.860;9.624;2023-10-31T17:12:23;65.8;;;71.7;;
22515;SDS011;11424;48.860;9.624;2023-10-31T17:17:23;69.2;;;75.6;;
22515;SDS011;11424;48.860;9.624;2023-10-31T17:22:23;71.1;;;77.5;;
22515;SDS011;11424;48.860;9.624;2023-10-31T17:27:23;71.4;;;77.9;;
22515;SDS011;11424;48.860;9.624;2023-10-31T17:32:23;68.8;;;74.9;;
22515;SDS011;11424;48.860;9.624;2023-10-31T17:37:23;69.6;;;75.8;;
22515;SDS011;11424;48.860;9.624;2023-10-31T17:42:23;72.8;;;79.5;;
22515;SDS011;11424;48.860;9.624;2023-10-31T17:47:23;57.7;;;62.8;;
22515;SDS011;11424;48.860;9.624;2023-10-31T17:52:23;59.5;;;64.9;;
22515;SDS011;11424;48.860;9.624;2023-10-31T17:57:23;71.9;;;78.2;;
22515;SDS011;11424;48.860;9.624;2023-10-31T18:02:23;71.3;;;77.8;;
22515;SDS011;11424;48.860;9.624;2023-10-31T18:07:23;83.2;;;91.4;;
22515;SDS011;11424;48.860;9.624;2023-10-31T18:12:23;75.6;;;82.7;;
22515;SDS011;11424;48.860;9.624;2023-10-31T18:17:23;77.1;;;84.6;;
22515;SDS011;11424;48.860;9.624;2023-10-31T18:22:23;73.1;;;79.9;;
22515;SDS011;11424;48.860;9.624;2023-10-31T18:27:23;74.9;;;82.1;;
22515;SDS011;11424;48.860;9.624;2023-10-31T18:32:23;61.9;;;68;;
22515;SDS011;11424;48.860;9.624;2023-10-31T18:37:23;71.2;;;77.7;;
22515;SDS011;11424;48.860;9.624;2023-10-31T18:42:23;83.6;;;92;;
22515;SDS011;11424;48.860;9.624;2023-10-31T18:47:23;74;;;80.9;;
22515;SDS011;11424;48.860;9.624;2023-10-31T18:52:23;64;;;69.7;;
22515;SDS011;11424;48.860;9.624;2023-10-31T18:57:23;71.7;;;78.4;;
22515;SDS011;11424;48.860;9.624;2023-10-31T19:02:23;71.1;;;77.7;;
22515;SDS011;11424;48.860;9.624;2023-10-31T19:07:23;69.5;;;75.9;;
22515;SDS011;11424;48.860;9.624;2023-10-31T19:12:23;66.1;;;72.1;;
22515;SDS011;11424;48.860;9.624;2023-10-31T19:17:23;73.3;;;80.2;;
22515;SDS011;11424;48.860;9.624;2023-10-31T19:22:23;71.4;;;78.1;;
22515;SDS011;11424;48.860;9.624;2023-10-31T19:27:23;72.5;;;79.2;;
22515;SDS011;11424;48.860;9.624;2023-10-31T19:32:23;69.8;;;75.9;;
22515;SDS011;11424;48.860;9.624;2023-10-31T19:37:23;73.2;;;80;;
22515;SDS011;11424;48.860;9.624;2023-10-31T19:42:23;68.7;;;74.9;;
22515;SDS011;11424;48.860;9.624;2023-10-31T19:47:23;66.9;;;73;;
22515;SDS011;11424;48.860;9.624;2023-10-31T19:52:23;65.6;;;71.5;;
22515;SDS011;11424;48.860;9.624;2023-10-31T19:57:23;70;;;76.5;;
22515;SDS011;11424;48.860;9.624;2023-10-31T20:02:23;57.7;;;62.7;;
22515;SDS011;11424;48.860;9.624;2023-10-31T20:07:23;54.7;;;59.3;;
22515;SDS011;11424;48.860;9.624;2023-10-31T20:12:23;58.4;;;63.5;;
22515;SDS011;11424;48.860;9.624;2023-10-31T20:17:23;66.5;;;72.6;;
22515;SDS011;11424;48.860;9.624;2023-10-31T20:22:23;68.7;;;74.9;;
22515;SDS011;11424;48.860;9.624;2023-10-31T20:27:23;68.1;;;74.3;;
22515;SDS011;11424;48.860;9.624;2023-10-31T20:32:23;71.3;;;77.9;;
22515;SDS011;11424;48.860;9.624;2023-10-31T20:37:23;65.2;;;70.9;;
22515;SDS011;11424;48.860;9.624;2023-10-31T20:42:23;66;;;72.2;;
22515;SDS011;11424;48.860;9.624;2023-10-31T20:47:23;59.8;;;65.4;;
22515;SDS011;11424;48.860;9.624;2023-10-31T20:52:23;61.7;;;67.5;;
22515;SDS011;11424;48.860;9.624;2023-10-31T20:57:23;70.1;;;76.7;;
22515;SDS011;11424;48.860;9.624;2023-10-31T21:02:23;71.2;;;78;;
22515;SDS011;11424;48.860;9.624;2023-10-31T21:07:23;70.6;;;77.4;;
22515;SDS011;11424;48.860;9.624;2023-10-31T21:12:23;75.3;;;82.7;;
22515;SDS011;11424;48.860;9.624;2023-10-31T21:17:23;77.8;;;85.3;;
22515;SDS011;11424;48.860;9.624;2023-10-31T21:22:23;72.2;;;78.9;;
22515;SDS011;11424;48.860;9.624;2023-10-31T21:27:23;58.8;;;64.2;;
22515;SDS011;11424;48.860;9.624;2023-10-31T21:32:23;57.9;;;61.9;;
22515;SDS011;11424;48.860;9.624;2023-10-31T21:37:23;68.2;;;74.7;;
22515;SDS011;11424;48.860;9.624;2023-10-31T21:42:23;74.1;;;81.3;;
22515;SDS011;11424;48.860;9.624;2023-10-31T21:47:23;67.3;;;73.5;;
22515;SDS011;11424;48.860;9.624;2023-10-31T21:52:23;65.8;;;71.6;;
22515;SDS011;11424;48.860;9.624;2023-10-31T21:57:23;72;;;78.8;;
22515;SDS011;11424;48.860;9.624;2023-10-31T22:02:23;76.4;;;83.9;;
22515;SDS011;11424;48.860;9.624;2023-10-31T22:07:23;75.4;;;82.5;;
22515;SDS011;11424;48.860;9.624;2023-10-31T22:12:23;60.1;;;66;;
22515;SDS011;11424;48.860;9.624;2023-10-31T22:17:23;71.6;;;78.3;;
22515;SDS011;11424;48.860;9.624;2023-10-31T22:22:23;75;;;82.4;;
22515;SDS011;11424;48.860;9.624;2023-10-31T22:27:23;73;;;80.1;;
22515;SDS011;11424;48.860;9.624;2023-10-31T22:32:23;76.5;;;83.9;;
22515;SDS011;11424;48.860;9.624;2023-10-31T22:37:23;69.5;;;76;;
22515;SDS011;11424;48.860;9.624;2023-10-31T22:42:23;74.4;;;81.6;;
22515;SDS011;11424;48.860;9.624;2023-10-31T22:47:23;70.9;;;77.9;;
22515;SDS011;11424;48.860;9.624;2023-10-31T22:52:23;75.9;;;83.5;;
22515;SDS011;11424;48.860;9.624;2023-10-31T22:57:23;76.5;;;84.1;;
22515;SDS011;11424;48.860;9.624;2023-10-31T23:02:23;74.6;;;81.9;;
22515;SDS011;11424;48.860;9.624;2023-10-31T23:07:23;70.2;;;76.9;;
22515;SDS011;11424;48.860;9.624;2023-10-31T23:12:23;75.9;;;83.5;;
22515;SDS011;11424;48.860;9.624;2023-10-31T23:17:23;77.9;;;85.5;;
22515;SDS011;11424;48.860;9.624;2023-10-31T23:22:23;76.1;;;83.6;;
22515;SDS011;11424;48.860;9.624;2023-10-31T23:27:23;70.9;;;77.5;;
22515;SDS011;11424;48.860;9.624;2023-10-31T23:32:23;78.6;;;86.5;;
22515;SDS011;11424;48.860;9.624;2023-10-31T23:37:23;77.2;;;84.9;;
22515;SDS011;11424;48.860;9.624;2023-10-31T23:42:23;59.7;;;65.8;;
22515;SDS011;11424;48.860;9.624;2023-10-31T23:47:23;57.7;;;63.3;;
22515;SDS011;11424;48.860;9.624;2023-10-31T23:52:24;58.6;;;64.2;;
22515;SDS011;11424;48.860;9.624;2023-10-31T23:57:23;73.3;;;80.5;;
